sensor_id;sensor_type;location;lat;lon;timestamp;P1;durP1;ratioP1;P2;durP2;ratioP2
55065;SDS011;40964;42.114;24.220;2023-02-28T00:00:31;21.85;;;5.00;;
55065;SDS011;40964;42.114;24.220;2023-02-28T00:02:57;21.73;;;5.35;;
55065;SDS011;40964;42.114;24.220;2023-02-28T00:05:24;31.98;;;8.88;;
55065;SDS011;40964;42.114;24.220;2023-02-28T00:07:51;29.38;;;8.82;;
55065;SDS011;40964;42.114;24.220;2023-02-28T00:10:27;35.92;;;9.95;;
55065;SDS011;40964;42.114;24.220;2023-02-28T00:12:55;75.15;;;16.85;;
55065;SDS011;40964;42.114;24.220;2023-02-28T00:15:24;27.05;;;6.78;;
55065;SDS011;40964;42.114;24.220;2023-02-28T00:17:49;19.45;;;5.45;;
55065;SDS011;40964;42.114;24.220;2023-02-28T00:20:15;12.93;;;4.15;;
55065;SDS011;40964;42.114;24.220;2023-02-28T00:22:42;22.27;;;5.00;;
55065;SDS011;40964;42.114;24.220;2023-02-28T00:25:11;18.95;;;4.47;;
55065;SDS011;40964;42.114;24.220;2023-02-28T00:27:38;24.48;;;5.05;;
55065;SDS011;40964;42.114;24.220;2023-02-28T00:30:05;17.10;;;4.22;;
55065;SDS011;40964;42.114;24.220;2023-02-28T00:32:33;11.95;;;3.95;;
55065;SDS011;40964;42.114;24.220;2023-02-28T00:35:00;12.65;;;3.22;;
55065;SDS011;40964;42.114;24.220;2023-02-28T00:37:26;9.88;;;2.95;;
55065;SDS011;40964;42.114;24.220;2023-02-28T00:39:51;13.50;;;3.70;;
55065;SDS011;40964;42.114;24.220;2023-02-28T00:42:17;18.17;;;4.10;;
55065;SDS011;40964;42.114;24.220;2023-02-28T00:44:42;9.40;;;3.08;;
55065;SDS011;40964;42.114;24.220;2023-02-28T00:47:08;11.23;;;3.08;;
55065;SDS011;40964;42.114;24.220;2023-02-28T00:49:33;32.88;;;8.02;;
55065;SDS011;40964;42.114;24.220;2023-02-28T00:51:59;33.40;;;7.68;;
55065;SDS011;40964;42.114;24.220;2023-02-28T00:54:24;21.15;;;3.35;;
55065;SDS011;40964;42.114;24.220;2023-02-28T00:56:50;16.75;;;3.25;;
55065;SDS011;40964;42.114;24.220;2023-02-28T00:59:16;20.00;;;4.18;;
55065;SDS011;40964;42.114;24.220;2023-02-28T01:01:43;21.20;;;4.82;;
55065;SDS011;40964;42.114;24.220;2023-02-28T01:04:10;20.33;;;6.45;;
55065;SDS011;40964;42.114;24.220;2023-02-28T01:06:35;36.10;;;6.82;;
55065;SDS011;40964;42.114;24.220;2023-02-28T01:09:01;15.48;;;4.43;;
55065;SDS011;40964;42.114;24.220;2023-02-28T01:11:28;16.80;;;3.88;;
55065;SDS011;40964;42.114;24.220;2023-02-28T01:13:54;17.88;;;3.85;;
55065;SDS011;40964;42.114;24.220;2023-02-28T01:16:19;10.13;;;3.03;;
55065;SDS011;40964;42.114;24.220;2023-02-28T01:18:45;17.23;;;2.70;;
55065;SDS011;40964;42.114;24.220;2023-02-28T01:21:12;9.93;;;2.60;;
55065;SDS011;40964;42.114;24.220;2023-02-28T01:23:40;12.82;;;3.95;;
55065;SDS011;40964;42.114;24.220;2023-02-28T01:26:10;13.13;;;3.65;;
55065;SDS011;40964;42.114;24.220;2023-02-28T01:28:38;19.63;;;3.65;;
55065;SDS011;40964;42.114;24.220;2023-02-28T01:31:03;24.75;;;4.32;;
55065;SDS011;40964;42.114;24.220;2023-02-28T01:33:30;13.43;;;4.18;;
55065;SDS011;40964;42.114;24.220;2023-02-28T01:36:00;19.73;;;4.97;;
55065;SDS011;40964;42.114;24.220;2023-02-28T01:38:30;16.52;;;4.05;;
55065;SDS011;40964;42.114;24.220;2023-02-28T01:40:56;32.47;;;4.22;;
55065;SDS011;40964;42.114;24.220;2023-02-28T01:45:50;16.02;;;3.38;;
55065;SDS011;40964;42.114;24.220;2023-02-28T01:48:17;15.27;;;3.40;;
55065;SDS011;40964;42.114;24.220;2023-02-28T01:50:46;20.42;;;4.28;;
55065;SDS011;40964;42.114;24.220;2023-02-28T01:53:16;14.00;;;4.22;;
55065;SDS011;40964;42.114;24.220;2023-02-28T01:55:51;17.75;;;4.47;;
55065;SDS011;40964;42.114;24.220;2023-02-28T01:58:18;11.70;;;3.63;;
55065;SDS011;40964;42.114;24.220;2023-02-28T02:00:44;12.23;;;3.63;;
55065;SDS011;40964;42.114;24.220;2023-02-28T02:03:11;13.63;;;4.13;;
55065;SDS011;40964;42.114;24.220;2023-02-28T02:05:39;20.23;;;3.72;;
55065;SDS011;40964;42.114;24.220;2023-02-28T02:08:09;17.02;;;3.45;;
55065;SDS011;40964;42.114;24.220;2023-02-28T02:10:41;19.67;;;3.67;;
55065;SDS011;40964;42.114;24.220;2023-02-28T02:32:26;15.27;;;3.13;;
55065;SDS011;40964;42.114;24.220;2023-02-28T02:37:59;16.40;;;3.25;;
55065;SDS011;40964;42.114;24.220;2023-02-28T02:40:38;12.05;;;2.70;;
55065;SDS011;40964;42.114;24.220;2023-02-28T02:43:47;5.53;;;2.55;;
55065;SDS011;40964;42.114;24.220;2023-02-28T02:46:34;9.80;;;3.97;;
55065;SDS011;40964;42.114;24.220;2023-02-28T02:49:04;22.13;;;6.28;;
55065;SDS011;40964;42.114;24.220;2023-02-28T02:51:34;11.88;;;4.93;;
55065;SDS011;40964;42.114;24.220;2023-02-28T02:54:22;10.00;;;3.78;;
55065;SDS011;40964;42.114;24.220;2023-02-28T02:56:54;11.07;;;3.20;;
55065;SDS011;40964;42.114;24.220;2023-02-28T02:59:23;12.77;;;3.97;;
55065;SDS011;40964;42.114;24.220;2023-02-28T03:01:55;12.13;;;3.63;;
55065;SDS011;40964;42.114;24.220;2023-02-28T03:04:24;14.15;;;4.00;;
55065;SDS011;40964;42.114;24.220;2023-02-28T03:06:52;13.15;;;3.72;;
55065;SDS011;40964;42.114;24.220;2023-02-28T03:09:23;12.23;;;3.83;;
55065;SDS011;40964;42.114;24.220;2023-02-28T03:11:50;17.25;;;4.07;;
55065;SDS011;40964;42.114;24.220;2023-02-28T03:19:33;14.43;;;3.20;;
55065;SDS011;40964;42.114;24.220;2023-02-28T03:25:02;19.92;;;5.13;;
55065;SDS011;40964;42.114;24.220;2023-02-28T03:27:48;14.90;;;4.40;;
55065;SDS011;40964;42.114;24.220;2023-02-28T03:33:00;14.18;;;3.83;;
55065;SDS011;40964;42.114;24.220;2023-02-28T03:35:36;9.48;;;4.00;;
55065;SDS011;40964;42.114;24.220;2023-02-28T03:38:10;22.35;;;7.68;;
55065;SDS011;40964;42.114;24.220;2023-02-28T03:40:41;61.90;;;23.70;;
55065;SDS011;40964;42.114;24.220;2023-02-28T03:43:14;36.88;;;13.23;;
55065;SDS011;40964;42.114;24.220;2023-02-28T03:45:43;23.30;;;10.00;;
55065;SDS011;40964;42.114;24.220;2023-02-28T03:50:42;15.57;;;5.22;;
55065;SDS011;40964;42.114;24.220;2023-02-28T03:53:19;14.35;;;4.40;;
55065;SDS011;40964;42.114;24.220;2023-02-28T03:56:06;11.80;;;3.63;;
55065;SDS011;40964;42.114;24.220;2023-02-28T04:01:34;12.55;;;4.15;;
55065;SDS011;40964;42.114;24.220;2023-02-28T04:04:03;10.98;;;3.55;;
55065;SDS011;40964;42.114;24.220;2023-02-28T04:06:30;12.35;;;3.63;;
55065;SDS011;40964;42.114;24.220;2023-02-28T04:08:57;13.20;;;3.47;;
55065;SDS011;40964;42.114;24.220;2023-02-28T04:11:24;9.40;;;3.72;;
55065;SDS011;40964;42.114;24.220;2023-02-28T04:13:57;12.85;;;3.97;;
55065;SDS011;40964;42.114;24.220;2023-02-28T04:16:22;23.73;;;4.00;;
55065;SDS011;40964;42.114;24.220;2023-02-28T04:18:48;13.27;;;5.20;;
55065;SDS011;40964;42.114;24.220;2023-02-28T04:21:13;18.30;;;4.78;;
55065;SDS011;40964;42.114;24.220;2023-02-28T04:23:39;9.82;;;3.45;;
55065;SDS011;40964;42.114;24.220;2023-02-28T04:26:04;15.82;;;4.93;;
55065;SDS011;40964;42.114;24.220;2023-02-28T04:28:31;14.60;;;4.13;;
55065;SDS011;40964;42.114;24.220;2023-02-28T04:30:57;20.95;;;4.53;;
55065;SDS011;40964;42.114;24.220;2023-02-28T04:33:25;18.48;;;6.60;;
55065;SDS011;40964;42.114;24.220;2023-02-28T04:36:04;22.10;;;5.22;;
55065;SDS011;40964;42.114;24.220;2023-02-28T04:38:35;17.27;;;4.53;;
55065;SDS011;40964;42.114;24.220;2023-02-28T04:41:02;13.32;;;4.30;;
55065;SDS011;40964;42.114;24.220;2023-02-28T04:43:28;10.07;;;4.05;;
55065;SDS011;40964;42.114;24.220;2023-02-28T04:45:55;14.98;;;4.32;;
55065;SDS011;40964;42.114;24.220;2023-02-28T04:48:25;11.15;;;4.50;;
55065;SDS011;40964;42.114;24.220;2023-02-28T04:50:52;8.55;;;3.72;;
55065;SDS011;40964;42.114;24.220;2023-02-28T04:53:18;13.05;;;4.50;;
55065;SDS011;40964;42.114;24.220;2023-02-28T04:55:44;14.85;;;3.65;;
55065;SDS011;40964;42.114;24.220;2023-02-28T04:58:09;9.23;;;3.65;;
55065;SDS011;40964;42.114;24.220;2023-02-28T05:00:35;16.05;;;4.22;;
55065;SDS011;40964;42.114;24.220;2023-02-28T05:03:01;14.45;;;3.50;;
55065;SDS011;40964;42.114;24.220;2023-02-28T05:05:27;7.97;;;3.05;;
55065;SDS011;40964;42.114;24.220;2023-02-28T05:07:52;10.88;;;3.55;;
55065;SDS011;40964;42.114;24.220;2023-02-28T05:10:18;13.70;;;3.40;;
55065;SDS011;40964;42.114;24.220;2023-02-28T05:12:44;8.25;;;2.83;;
55065;SDS011;40964;42.114;24.220;2023-02-28T05:15:12;7.18;;;3.05;;
55065;SDS011;40964;42.114;24.220;2023-02-28T05:17:39;11.75;;;3.38;;
55065;SDS011;40964;42.114;24.220;2023-02-28T05:20:04;12.10;;;3.45;;
55065;SDS011;40964;42.114;24.220;2023-02-28T05:22:31;13.52;;;4.03;;
55065;SDS011;40964;42.114;24.220;2023-02-28T05:24:57;9.90;;;3.45;;
55065;SDS011;40964;42.114;24.220;2023-02-28T05:27:22;18.92;;;4.70;;
55065;SDS011;40964;42.114;24.220;2023-02-28T05:29:48;11.95;;;4.50;;
55065;SDS011;40964;42.114;24.220;2023-02-28T05:32:14;20.08;;;4.95;;
55065;SDS011;40964;42.114;24.220;2023-02-28T05:34:40;16.20;;;3.85;;
55065;SDS011;40964;42.114;24.220;2023-02-28T05:37:08;10.10;;;3.35;;
55065;SDS011;40964;42.114;24.220;2023-02-28T05:39:37;11.45;;;3.83;;
55065;SDS011;40964;42.114;24.220;2023-02-28T05:42:03;11.23;;;4.88;;
55065;SDS011;40964;42.114;24.220;2023-02-28T05:44:29;21.55;;;8.73;;
55065;SDS011;40964;42.114;24.220;2023-02-28T05:46:55;18.83;;;8.30;;
55065;SDS011;40964;42.114;24.220;2023-02-28T05:49:20;23.58;;;9.30;;
55065;SDS011;40964;42.114;24.220;2023-02-28T05:51:46;30.02;;;12.20;;
55065;SDS011;40964;42.114;24.220;2023-02-28T05:54:11;25.73;;;10.43;;
55065;SDS011;40964;42.114;24.220;2023-02-28T05:56:37;19.98;;;7.07;;
55065;SDS011;40964;42.114;24.220;2023-02-28T05:59:05;17.35;;;6.63;;
55065;SDS011;40964;42.114;24.220;2023-02-28T06:03:58;29.02;;;11.23;;
55065;SDS011;40964;42.114;24.220;2023-02-28T06:06:25;20.10;;;7.93;;
55065;SDS011;40964;42.114;24.220;2023-02-28T06:08:51;19.55;;;7.90;;
55065;SDS011;40964;42.114;24.220;2023-02-28T06:11:16;22.67;;;7.47;;
55065;SDS011;40964;42.114;24.220;2023-02-28T06:13:42;23.52;;;8.05;;
55065;SDS011;40964;42.114;24.220;2023-02-28T06:16:08;22.13;;;6.88;;
55065;SDS011;40964;42.114;24.220;2023-02-28T06:18:35;27.05;;;7.85;;
55065;SDS011;40964;42.114;24.220;2023-02-28T06:21:01;22.45;;;7.53;;
55065;SDS011;40964;42.114;24.220;2023-02-28T06:23:27;23.67;;;7.93;;
55065;SDS011;40964;42.114;24.220;2023-02-28T06:25:52;18.30;;;7.05;;
55065;SDS011;40964;42.114;24.220;2023-02-28T06:28:18;29.27;;;8.82;;
55065;SDS011;40964;42.114;24.220;2023-02-28T06:30:44;26.35;;;9.10;;
55065;SDS011;40964;42.114;24.220;2023-02-28T06:33:09;28.02;;;8.40;;
55065;SDS011;40964;42.114;24.220;2023-02-28T06:35:35;17.40;;;7.82;;
55065;SDS011;40964;42.114;24.220;2023-02-28T06:38:00;23.05;;;9.45;;
55065;SDS011;40964;42.114;24.220;2023-02-28T06:40:26;27.83;;;9.05;;
55065;SDS011;40964;42.114;24.220;2023-02-28T06:42:52;22.27;;;10.02;;
55065;SDS011;40964;42.114;24.220;2023-02-28T06:45:17;23.52;;;9.88;;
55065;SDS011;40964;42.114;24.220;2023-02-28T06:47:43;29.85;;;9.20;;
55065;SDS011;40964;42.114;24.220;2023-02-28T06:50:10;33.40;;;11.10;;
55065;SDS011;40964;42.114;24.220;2023-02-28T06:52:36;30.55;;;12.73;;
55065;SDS011;40964;42.114;24.220;2023-02-28T06:55:06;29.13;;;10.77;;
55065;SDS011;40964;42.114;24.220;2023-02-28T06:57:33;28.48;;;11.00;;
55065;SDS011;40964;42.114;24.220;2023-02-28T07:00:00;30.58;;;11.02;;
55065;SDS011;40964;42.114;24.220;2023-02-28T07:02:28;27.23;;;10.38;;
55065;SDS011;40964;42.114;24.220;2023-02-28T07:04:53;21.58;;;8.95;;
55065;SDS011;40964;42.114;24.220;2023-02-28T07:07:19;26.25;;;10.85;;
55065;SDS011;40964;42.114;24.220;2023-02-28T07:09:44;32.25;;;11.85;;
55065;SDS011;40964;42.114;24.220;2023-02-28T07:12:10;29.42;;;10.27;;
55065;SDS011;40964;42.114;24.220;2023-02-28T07:14:36;30.45;;;10.48;;
55065;SDS011;40964;42.114;24.220;2023-02-28T07:17:01;32.17;;;12.18;;
55065;SDS011;40964;42.114;24.220;2023-02-28T07:19:27;36.10;;;13.23;;
55065;SDS011;40964;42.114;24.220;2023-02-28T07:21:53;27.40;;;10.77;;
55065;SDS011;40964;42.114;24.220;2023-02-28T07:24:18;28.15;;;11.55;;
55065;SDS011;40964;42.114;24.220;2023-02-28T07:26:44;35.28;;;13.93;;
55065;SDS011;40964;42.114;24.220;2023-02-28T07:29:09;34.63;;;11.73;;
55065;SDS011;40964;42.114;24.220;2023-02-28T07:31:35;37.03;;;13.95;;
55065;SDS011;40964;42.114;24.220;2023-02-28T07:34:00;25.45;;;10.63;;
55065;SDS011;40964;42.114;24.220;2023-02-28T07:36:27;25.83;;;10.18;;
55065;SDS011;40964;42.114;24.220;2023-02-28T07:38:52;23.05;;;9.15;;
55065;SDS011;40964;42.114;24.220;2023-02-28T07:41:19;27.15;;;9.13;;
55065;SDS011;40964;42.114;24.220;2023-02-28T07:43:46;30.70;;;11.18;;
55065;SDS011;40964;42.114;24.220;2023-02-28T07:46:13;27.50;;;10.98;;
55065;SDS011;40964;42.114;24.220;2023-02-28T07:48:43;25.52;;;11.48;;
55065;SDS011;40964;42.114;24.220;2023-02-28T07:51:09;26.40;;;11.25;;
55065;SDS011;40964;42.114;24.220;2023-02-28T07:53:35;28.35;;;11.30;;
55065;SDS011;40964;42.114;24.220;2023-02-28T07:56:01;36.22;;;12.50;;
55065;SDS011;40964;42.114;24.220;2023-02-28T07:58:28;31.23;;;11.55;;
55065;SDS011;40964;42.114;24.220;2023-02-28T08:00:54;35.20;;;13.93;;
55065;SDS011;40964;42.114;24.220;2023-02-28T08:03:21;34.97;;;12.30;;
55065;SDS011;40964;42.114;24.220;2023-02-28T08:05:47;32.92;;;12.48;;
55065;SDS011;40964;42.114;24.220;2023-02-28T08:08:13;34.15;;;13.20;;
55065;SDS011;40964;42.114;24.220;2023-02-28T08:10:42;32.70;;;12.20;;
55065;SDS011;40964;42.114;24.220;2023-02-28T08:13:08;33.67;;;11.48;;
55065;SDS011;40964;42.114;24.220;2023-02-28T08:15:33;28.40;;;10.93;;
55065;SDS011;40964;42.114;24.220;2023-02-28T08:17:59;33.17;;;10.95;;
55065;SDS011;40964;42.114;24.220;2023-02-28T08:20:25;27.77;;;10.82;;
55065;SDS011;40964;42.114;24.220;2023-02-28T08:22:51;38.65;;;12.60;;
55065;SDS011;40964;42.114;24.220;2023-02-28T08:25:16;28.15;;;12.50;;
55065;SDS011;40964;42.114;24.220;2023-02-28T08:27:42;29.63;;;12.38;;
55065;SDS011;40964;42.114;24.220;2023-02-28T08:30:10;36.40;;;13.50;;
55065;SDS011;40964;42.114;24.220;2023-02-28T08:32:37;30.88;;;12.45;;
55065;SDS011;40964;42.114;24.220;2023-02-28T08:35:03;30.02;;;11.88;;
55065;SDS011;40964;42.114;24.220;2023-02-28T08:37:29;32.35;;;11.98;;
55065;SDS011;40964;42.114;24.220;2023-02-28T08:39:54;32.70;;;12.60;;
55065;SDS011;40964;42.114;24.220;2023-02-28T08:42:20;29.35;;;11.90;;
55065;SDS011;40964;42.114;24.220;2023-02-28T08:44:45;41.67;;;15.20;;
55065;SDS011;40964;42.114;24.220;2023-02-28T08:47:11;37.03;;;12.93;;
55065;SDS011;40964;42.114;24.220;2023-02-28T08:49:36;36.33;;;13.25;;
55065;SDS011;40964;42.114;24.220;2023-02-28T08:52:02;35.90;;;13.60;;
55065;SDS011;40964;42.114;24.220;2023-02-28T08:54:28;35.33;;;13.18;;
55065;SDS011;40964;42.114;24.220;2023-02-28T08:56:56;34.08;;;12.98;;
55065;SDS011;40964;42.114;24.220;2023-02-28T08:59:22;46.65;;;14.68;;
55065;SDS011;40964;42.114;24.220;2023-02-28T09:01:48;37.60;;;14.18;;
55065;SDS011;40964;42.114;24.220;2023-02-28T09:04:13;49.17;;;15.18;;
55065;SDS011;40964;42.114;24.220;2023-02-28T09:06:38;40.55;;;15.32;;
55065;SDS011;40964;42.114;24.220;2023-02-28T09:09:04;35.47;;;14.32;;
55065;SDS011;40964;42.114;24.220;2023-02-28T09:11:31;34.03;;;14.00;;
55065;SDS011;40964;42.114;24.220;2023-02-28T09:13:57;38.30;;;14.13;;
55065;SDS011;40964;42.114;24.220;2023-02-28T09:16:24;46.00;;;16.05;;
55065;SDS011;40964;42.114;24.220;2023-02-28T09:18:49;38.50;;;16.13;;
55065;SDS011;40964;42.114;24.220;2023-02-28T09:21:16;46.83;;;17.80;;
55065;SDS011;40964;42.114;24.220;2023-02-28T09:23:43;39.72;;;14.52;;
55065;SDS011;40964;42.114;24.220;2023-02-28T09:26:13;42.10;;;16.00;;
55065;SDS011;40964;42.114;24.220;2023-02-28T09:28:47;45.35;;;16.10;;
55065;SDS011;40964;42.114;24.220;2023-02-28T09:31:14;48.15;;;14.70;;
55065;SDS011;40964;42.114;24.220;2023-02-28T09:33:41;39.13;;;14.50;;
55065;SDS011;40964;42.114;24.220;2023-02-28T09:36:07;39.17;;;15.65;;
55065;SDS011;40964;42.114;24.220;2023-02-28T09:38:33;44.03;;;16.05;;
55065;SDS011;40964;42.114;24.220;2023-02-28T09:41:00;34.63;;;13.70;;
55065;SDS011;40964;42.114;24.220;2023-02-28T09:43:29;34.95;;;13.32;;
55065;SDS011;40964;42.114;24.220;2023-02-28T09:46:12;34.53;;;14.05;;
55065;SDS011;40964;42.114;24.220;2023-02-28T09:48:48;33.85;;;14.00;;
55065;SDS011;40964;42.114;24.220;2023-02-28T09:53:41;44.13;;;15.40;;
55065;SDS011;40964;42.114;24.220;2023-02-28T09:56:11;43.80;;;15.32;;
55065;SDS011;40964;42.114;24.220;2023-02-28T09:58:55;31.70;;;14.52;;
55065;SDS011;40964;42.114;24.220;2023-02-28T10:10:04;47.30;;;16.40;;
55065;SDS011;40964;42.114;24.220;2023-02-28T10:12:41;48.55;;;15.70;;
55065;SDS011;40964;42.114;24.220;2023-02-28T10:15:13;47.00;;;16.38;;
55065;SDS011;40964;42.114;24.220;2023-02-28T10:17:41;39.92;;;13.90;;
55065;SDS011;40964;42.114;24.220;2023-02-28T10:20:11;38.22;;;15.52;;
55065;SDS011;40964;42.114;24.220;2023-02-28T10:25:36;35.00;;;13.00;;
55065;SDS011;40964;42.114;24.220;2023-02-28T10:28:12;35.78;;;12.52;;
55065;SDS011;40964;42.114;24.220;2023-02-28T10:30:43;35.30;;;13.15;;
55065;SDS011;40964;42.114;24.220;2023-02-28T10:33:24;35.92;;;12.60;;
55065;SDS011;40964;42.114;24.220;2023-02-28T10:36:00;36.53;;;12.82;;
55065;SDS011;40964;42.114;24.220;2023-02-28T10:38:28;31.85;;;13.90;;
55065;SDS011;40964;42.114;24.220;2023-02-28T10:43:29;39.00;;;13.80;;
55065;SDS011;40964;42.114;24.220;2023-02-28T10:45:56;43.00;;;16.20;;
55065;SDS011;40964;42.114;24.220;2023-02-28T11:01:37;38.60;;;14.65;;
55065;SDS011;40964;42.114;24.220;2023-02-28T11:09:36;39.42;;;13.52;;
55065;SDS011;40964;42.114;24.220;2023-02-28T11:12:05;34.33;;;14.23;;
55065;SDS011;40964;42.114;24.220;2023-02-28T11:14:40;36.45;;;13.95;;
55065;SDS011;40964;42.114;24.220;2023-02-28T11:17:21;35.97;;;14.60;;
55065;SDS011;40964;42.114;24.220;2023-02-28T11:20:06;39.92;;;14.63;;
55065;SDS011;40964;42.114;24.220;2023-02-28T11:22:43;44.30;;;17.55;;
55065;SDS011;40964;42.114;24.220;2023-02-28T11:25:31;60.35;;;21.02;;
55065;SDS011;40964;42.114;24.220;2023-02-28T11:27:58;38.03;;;14.30;;
55065;SDS011;40964;42.114;24.220;2023-02-28T11:30:39;38.50;;;15.40;;
55065;SDS011;40964;42.114;24.220;2023-02-28T11:33:49;48.22;;;18.98;;
55065;SDS011;40964;42.114;24.220;2023-02-28T11:36:13;45.22;;;17.13;;
55065;SDS011;40964;42.114;24.220;2023-02-28T11:38:41;45.65;;;17.42;;
55065;SDS011;40964;42.114;24.220;2023-02-28T11:46:49;42.22;;;15.95;;
55065;SDS011;40964;42.114;24.220;2023-02-28T11:52:20;39.15;;;17.38;;
55065;SDS011;40964;42.114;24.220;2023-02-28T12:03:13;42.85;;;17.00;;
55065;SDS011;40964;42.114;24.220;2023-02-28T12:05:44;35.35;;;14.05;;
55065;SDS011;40964;42.114;24.220;2023-02-28T12:13:48;38.40;;;15.50;;
55065;SDS011;40964;42.114;24.220;2023-02-28T12:19:06;43.10;;;15.15;;
55065;SDS011;40964;42.114;24.220;2023-02-28T12:26:58;43.83;;;16.80;;
55065;SDS011;40964;42.114;24.220;2023-02-28T12:29:51;54.13;;;18.30;;
55065;SDS011;40964;42.114;24.220;2023-02-28T12:32:35;44.80;;;17.58;;
55065;SDS011;40964;42.114;24.220;2023-02-28T12:35:10;39.53;;;16.35;;
55065;SDS011;40964;42.114;24.220;2023-02-28T12:40:21;45.53;;;17.65;;
55065;SDS011;40964;42.114;24.220;2023-02-28T12:42:52;51.47;;;18.23;;
55065;SDS011;40964;42.114;24.220;2023-02-28T12:45:31;45.65;;;16.70;;
55065;SDS011;40964;42.114;24.220;2023-02-28T12:48:04;43.45;;;15.82;;
55065;SDS011;40964;42.114;24.220;2023-02-28T12:50:33;52.83;;;19.65;;
55065;SDS011;40964;42.114;24.220;2023-02-28T12:58:20;51.20;;;19.50;;
55065;SDS011;40964;42.114;24.220;2023-02-28T13:06:39;65.63;;;21.02;;
55065;SDS011;40964;42.114;24.220;2023-02-28T13:09:20;59.50;;;18.88;;
55065;SDS011;40964;42.114;24.220;2023-02-28T13:11:52;57.13;;;20.10;;
55065;SDS011;40964;42.114;24.220;2023-02-28T13:19:17;61.38;;;19.85;;
55065;SDS011;40964;42.114;24.220;2023-02-28T13:21:46;62.75;;;21.77;;
55065;SDS011;40964;42.114;24.220;2023-02-28T13:24:27;63.22;;;20.98;;
55065;SDS011;40964;42.114;24.220;2023-02-28T13:29:39;57.75;;;21.88;;
55065;SDS011;40964;42.114;24.220;2023-02-28T14:04:09;53.33;;;19.90;;
55065;SDS011;40964;42.114;24.220;2023-02-28T14:06:48;65.53;;;22.73;;
55065;SDS011;40964;42.114;24.220;2023-02-28T14:09:18;71.50;;;19.52;;
55065;SDS011;40964;42.114;24.220;2023-02-28T14:11:50;58.25;;;21.15;;
55065;SDS011;40964;42.114;24.220;2023-02-28T14:16:59;50.92;;;19.48;;
55065;SDS011;40964;42.114;24.220;2023-02-28T14:19:31;52.40;;;19.42;;
55065;SDS011;40964;42.114;24.220;2023-02-28T14:39:05;58.42;;;21.88;;
55065;SDS011;40964;42.114;24.220;2023-02-28T14:41:44;53.95;;;19.33;;
55065;SDS011;40964;42.114;24.220;2023-02-28T14:46:46;62.70;;;22.38;;
55065;SDS011;40964;42.114;24.220;2023-02-28T14:49:36;57.22;;;20.55;;
55065;SDS011;40964;42.114;24.220;2023-02-28T14:54:51;78.18;;;26.20;;
55065;SDS011;40964;42.114;24.220;2023-02-28T14:57:23;81.30;;;27.67;;
55065;SDS011;40964;42.114;24.220;2023-02-28T14:59:56;84.53;;;28.55;;
55065;SDS011;40964;42.114;24.220;2023-02-28T15:02:30;68.13;;;25.40;;
55065;SDS011;40964;42.114;24.220;2023-02-28T15:05:00;63.45;;;20.98;;
55065;SDS011;40964;42.114;24.220;2023-02-28T15:07:35;54.35;;;19.13;;
55065;SDS011;40964;42.114;24.220;2023-02-28T15:13:06;48.10;;;16.73;;
55065;SDS011;40964;42.114;24.220;2023-02-28T15:18:14;49.08;;;17.98;;
55065;SDS011;40964;42.114;24.220;2023-02-28T15:20:47;49.60;;;19.17;;
55065;SDS011;40964;42.114;24.220;2023-02-28T15:23:14;48.33;;;17.27;;
55065;SDS011;40964;42.114;24.220;2023-02-28T15:25:40;53.97;;;19.20;;
55065;SDS011;40964;42.114;24.220;2023-02-28T15:28:09;39.90;;;16.70;;
55065;SDS011;40964;42.114;24.220;2023-02-28T15:30:49;48.75;;;18.25;;
55065;SDS011;40964;42.114;24.220;2023-02-28T15:33:21;49.17;;;18.38;;
55065;SDS011;40964;42.114;24.220;2023-02-28T15:35:49;55.35;;;20.40;;
55065;SDS011;40964;42.114;24.220;2023-02-28T15:40:52;57.95;;;17.83;;
55065;SDS011;40964;42.114;24.220;2023-02-28T15:45:50;44.55;;;16.30;;
55065;SDS011;40964;42.114;24.220;2023-02-28T15:51:07;50.22;;;16.52;;
55065;SDS011;40964;42.114;24.220;2023-02-28T15:56:22;48.90;;;19.27;;
55065;SDS011;40964;42.114;24.220;2023-02-28T15:58:52;53.42;;;17.20;;
55065;SDS011;40964;42.114;24.220;2023-02-28T16:01:27;40.80;;;17.52;;
55065;SDS011;40964;42.114;24.220;2023-02-28T16:04:11;48.00;;;18.40;;
55065;SDS011;40964;42.114;24.220;2023-02-28T16:09:13;47.72;;;17.92;;
55065;SDS011;40964;42.114;24.220;2023-02-28T16:11:41;42.30;;;16.67;;
55065;SDS011;40964;42.114;24.220;2023-02-28T16:14:14;45.55;;;18.42;;
55065;SDS011;40964;42.114;24.220;2023-02-28T16:16:46;44.00;;;17.35;;
55065;SDS011;40964;42.114;24.220;2023-02-28T16:19:13;48.35;;;19.08;;
55065;SDS011;40964;42.114;24.220;2023-02-28T16:21:39;53.78;;;20.40;;
55065;SDS011;40964;42.114;24.220;2023-02-28T16:24:05;49.58;;;19.83;;
55065;SDS011;40964;42.114;24.220;2023-02-28T16:26:31;57.25;;;22.67;;
55065;SDS011;40964;42.114;24.220;2023-02-28T16:28:59;53.38;;;16.38;;
55065;SDS011;40964;42.114;24.220;2023-02-28T16:31:26;40.95;;;16.70;;
55065;SDS011;40964;42.114;24.220;2023-02-28T16:33:52;41.50;;;16.52;;
55065;SDS011;40964;42.114;24.220;2023-02-28T16:36:20;43.08;;;17.65;;
55065;SDS011;40964;42.114;24.220;2023-02-28T16:38:48;39.20;;;14.52;;
55065;SDS011;40964;42.114;24.220;2023-02-28T16:41:26;36.58;;;14.93;;
55065;SDS011;40964;42.114;24.220;2023-02-28T16:43:53;34.15;;;13.95;;
55065;SDS011;40964;42.114;24.220;2023-02-28T16:46:24;42.17;;;16.75;;
55065;SDS011;40964;42.114;24.220;2023-02-28T16:48:56;44.28;;;18.20;;
55065;SDS011;40964;42.114;24.220;2023-02-28T16:51:22;39.85;;;15.50;;
55065;SDS011;40964;42.114;24.220;2023-02-28T16:53:47;57.13;;;20.17;;
55065;SDS011;40964;42.114;24.220;2023-02-28T16:56:14;50.00;;;17.70;;
55065;SDS011;40964;42.114;24.220;2023-02-28T16:58:45;71.90;;;20.58;;
55065;SDS011;40964;42.114;24.220;2023-02-28T17:01:11;56.42;;;20.15;;
55065;SDS011;40964;42.114;24.220;2023-02-28T17:03:37;52.22;;;18.17;;
55065;SDS011;40964;42.114;24.220;2023-02-28T17:06:03;61.85;;;21.48;;
55065;SDS011;40964;42.114;24.220;2023-02-28T17:08:30;69.65;;;26.00;;
55065;SDS011;40964;42.114;24.220;2023-02-28T17:10:57;67.00;;;23.65;;
55065;SDS011;40964;42.114;24.220;2023-02-28T17:13:23;52.80;;;21.15;;
55065;SDS011;40964;42.114;24.220;2023-02-28T17:15:49;41.38;;;16.33;;
55065;SDS011;40964;42.114;24.220;2023-02-28T17:18:15;50.47;;;18.60;;
55065;SDS011;40964;42.114;24.220;2023-02-28T17:20:46;52.53;;;21.38;;
55065;SDS011;40964;42.114;24.220;2023-02-28T17:23:12;61.45;;;24.88;;
55065;SDS011;40964;42.114;24.220;2023-02-28T17:25:38;58.67;;;18.45;;
55065;SDS011;40964;42.114;24.220;2023-02-28T17:28:04;40.30;;;16.00;;
55065;SDS011;40964;42.114;24.220;2023-02-28T17:30:30;42.03;;;15.05;;
55065;SDS011;40964;42.114;24.220;2023-02-28T17:32:59;42.72;;;14.43;;
55065;SDS011;40964;42.114;24.220;2023-02-28T17:35:24;34.45;;;13.43;;
55065;SDS011;40964;42.114;24.220;2023-02-28T17:37:51;34.80;;;13.95;;
55065;SDS011;40964;42.114;24.220;2023-02-28T17:40:21;35.72;;;13.82;;
55065;SDS011;40964;42.114;24.220;2023-02-28T17:42:48;36.55;;;13.10;;
55065;SDS011;40964;42.114;24.220;2023-02-28T17:45:13;29.27;;;12.57;;
55065;SDS011;40964;42.114;24.220;2023-02-28T17:47:40;35.80;;;11.95;;
55065;SDS011;40964;42.114;24.220;2023-02-28T17:50:11;25.92;;;11.15;;